sensor_id;sensor_type;location;lat;lon;timestamp;temperature;humidity
5621;DHT22;2832;50.864;12.186;2022-12-13T00:01:44;3.20;99.90
5621;DHT22;2832;50.864;12.186;2022-12-13T00:04:13;3.20;99.90
5621;DHT22;2832;50.864;12.186;2022-12-13T00:06:41;3.20;99.90
5621;DHT22;2832;50.864;12.186;2022-12-13T00:09:12;3.20;99.90
5621;DHT22;2832;50.864;12.186;2022-12-13T00:11:41;3.20;99.90
5621;DHT22;2832;50.864;12.186;2022-12-13T00:14:09;3.20;99.90
5621;DHT22;2832;50.864;12.186;2022-12-13T00:16:43;3.20;99.90
5621;DHT22;2832;50.864;12.186;2022-12-13T00:19:12;3.20;99.90
5621;DHT22;2832;50.864;12.186;2022-12-13T00:21:40;3.10;99.90
5621;DHT22;2832;50.864;12.186;2022-12-13T00:24:12;3.10;99.90
5621;DHT22;2832;50.864;12.186;2022-12-13T00:26:39;3.10;99.90
5621;DHT22;2832;50.864;12.186;2022-12-13T00:29:08;3.00;99.90
5621;DHT22;2832;50.864;12.186;2022-12-13T00:31:36;3.10;99.90
5621;DHT22;2832;50.864;12.186;2022-12-13T00:34:04;3.10;99.90
5621;DHT22;2832;50.864;12.186;2022-12-13T00:37:02;3.10;99.90
5621;DHT22;2832;50.864;12.186;2022-12-13T00:39:32;3.10;99.90
5621;DHT22;2832;50.864;12.186;2022-12-13T00:42:00;3.10;99.90
5621;DHT22;2832;50.864;12.186;2022-12-13T00:44:28;3.10;99.90
5621;DHT22;2832;50.864;12.186;2022-12-13T00:46:57;3.10;99.90
5621;DHT22;2832;50.864;12.186;2022-12-13T00:49:26;3.10;99.90
5621;DHT22;2832;50.864;12.186;2022-12-13T00:51:53;3.10;99.90
5621;DHT22;2832;50.864;12.186;2022-12-13T00:54:23;3.10;99.90
5621;DHT22;2832;50.864;12.186;2022-12-13T00:56:52;3.10;99.90
5621;DHT22;2832;50.864;12.186;2022-12-13T00:59:22;3.10;99.90
5621;DHT22;2832;50.864;12.186;2022-12-13T01:01:50;3.10;99.90
5621;DHT22;2832;50.864;12.186;2022-12-13T01:04:18;3.20;99.90
5621;DHT22;2832;50.864;12.186;2022-12-13T01:06:47;3.10;99.90
5621;DHT22;2832;50.864;12.186;2022-12-13T01:09:18;3.20;99.90
5621;DHT22;2832;50.864;12.186;2022-12-13T01:11:47;3.20;99.90
5621;DHT22;2832;50.864;12.186;2022-12-13T01:14:18;3.20;99.90
5621;DHT22;2832;50.864;12.186;2022-12-13T01:16:46;3.10;99.90
5621;DHT22;2832;50.864;12.186;2022-12-13T01:19:14;3.00;99.90
5621;DHT22;2832;50.864;12.186;2022-12-13T01:21:42;3.00;99.90
5621;DHT22;2832;50.864;12.186;2022-12-13T01:24:10;3.00;99.90
5621;DHT22;2832;50.864;12.186;2022-12-13T01:26:42;3.00;99.90
5621;DHT22;2832;50.864;12.186;2022-12-13T01:29:10;3.00;99.90
5621;DHT22;2832;50.864;12.186;2022-12-13T01:31:39;3.10;99.90
5621;DHT22;2832;50.864;12.186;2022-12-13T01:34:08;3.00;99.90
5621;DHT22;2832;50.864;12.186;2022-12-13T01:36:38;3.00;99.90
5621;DHT22;2832;50.864;12.186;2022-12-13T01:39:08;3.00;99.90
5621;DHT22;2832;50.864;12.186;2022-12-13T01:41:36;3.00;99.90
5621;DHT22;2832;50.864;12.186;2022-12-13T01:44:05;3.00;99.90
5621;DHT22;2832;50.864;12.186;2022-12-13T01:46:34;3.00;99.90
5621;DHT22;2832;50.864;12.186;2022-12-13T01:49:07;3.00;99.90
5621;DHT22;2832;50.864;12.186;2022-12-13T01:51:38;3.00;99.90
5621;DHT22;2832;50.864;12.186;2022-12-13T01:54:14;3.00;99.90
5621;DHT22;2832;50.864;12.186;2022-12-13T01:56:46;3.00;99.90
5621;DHT22;2832;50.864;12.186;2022-12-13T01:59:17;3.00;99.90
5621;DHT22;2832;50.864;12.186;2022-12-13T02:01:46;3.00;99.90
5621;DHT22;2832;50.864;12.186;2022-12-13T02:04:20;3.00;99.90
5621;DHT22;2832;50.864;12.186;2022-12-13T02:06:55;2.90;99.90
5621;DHT22;2832;50.864;12.186;2022-12-13T02:09:27;2.90;99.90
5621;DHT22;2832;50.864;12.186;2022-12-13T02:11:56;2.90;99.90
5621;DHT22;2832;50.864;12.186;2022-12-13T02:14:24;2.90;99.90
5621;DHT22;2832;50.864;12.186;2022-12-13T02:16:58;2.90;99.90
5621;DHT22;2832;50.864;12.186;2022-12-13T02:22:43;2.90;99.90
5621;DHT22;2832;50.864;12.186;2022-12-13T02:25:36;2.80;99.90
5621;DHT22;2832;50.864;12.186;2022-12-13T02:28:15;2.80;99.90
5621;DHT22;2832;50.864;12.186;2022-12-13T02:30:52;2.80;99.90
5621;DHT22;2832;50.864;12.186;2022-12-13T02:33:30;2.70;99.90
5621;DHT22;2832;50.864;12.186;2022-12-13T02:36:08;2.60;99.90
5621;DHT22;2832;50.864;12.186;2022-12-13T02:38:47;2.60;99.90
5621;DHT22;2832;50.864;12.186;2022-12-13T02:41:23;2.50;99.90
5621;DHT22;2832;50.864;12.186;2022-12-13T02:43:56;2.50;99.90
5621;DHT22;2832;50.864;12.186;2022-12-13T02:46:28;2.40;99.90
5621;DHT22;2832;50.864;12.186;2022-12-13T02:48:59;2.40;99.90
5621;DHT22;2832;50.864;12.186;2022-12-13T02:51:29;2.30;99.90
5621;DHT22;2832;50.864;12.186;2022-12-13T02:53:58;2.30;99.90
5621;DHT22;2832;50.864;12.186;2022-12-13T02:56:26;2.30;99.90
5621;DHT22;2832;50.864;12.186;2022-12-13T02:58:56;2.30;99.90
5621;DHT22;2832;50.864;12.186;2022-12-13T03:01:36;2.30;99.90
5621;DHT22;2832;50.864;12.186;2022-12-13T03:04:15;2.30;99.90
5621;DHT22;2832;50.864;12.186;2022-12-13T03:06:56;2.40;99.90
5621;DHT22;2832;50.864;12.186;2022-12-13T03:09:38;2.40;99.90
5621;DHT22;2832;50.864;12.186;2022-12-13T03:12:20;2.40;99.90
5621;DHT22;2832;50.864;12.186;2022-12-13T03:15:15;2.40;99.90
5621;DHT22;2832;50.864;12.186;2022-12-13T03:17:48;2.40;99.90
5621;DHT22;2832;50.864;12.186;2022-12-13T03:20:24;2.40;99.90
5621;DHT22;2832;50.864;12.186;2022-12-13T03:22:53;2.40;99.90
5621;DHT22;2832;50.864;12.186;2022-12-13T03:25:28;2.50;99.90
5621;DHT22;2832;50.864;12.186;2022-12-13T03:27:57;2.50;99.90
5621;DHT22;2832;50.864;12.186;2022-12-13T03:30:25;2.50;99.90
5621;DHT22;2832;50.864;12.186;2022-12-13T03:32:54;2.50;99.90
5621;DHT22;2832;50.864;12.186;2022-12-13T03:35:22;2.50;99.90
5621;DHT22;2832;50.864;12.186;2022-12-13T03:37:50;2.50;99.90
5621;DHT22;2832;50.864;12.186;2022-12-13T03:40:19;2.50;99.90
5621;DHT22;2832;50.864;12.186;2022-12-13T03:42:48;2.50;99.90
5621;DHT22;2832;50.864;12.186;2022-12-13T03:45:16;2.40;99.90
5621;DHT22;2832;50.864;12.186;2022-12-13T03:47:46;2.50;99.90
5621;DHT22;2832;50.864;12.186;2022-12-13T03:50:18;2.40;99.90
5621;DHT22;2832;50.864;12.186;2022-12-13T03:52:47;2.50;99.90
5621;DHT22;2832;50.864;12.186;2022-12-13T03:55:17;2.50;99.90
5621;DHT22;2832;50.864;12.186;2022-12-13T03:57:45;2.50;99.90
5621;DHT22;2832;50.864;12.186;2022-12-13T04:00:14;2.50;99.90
5621;DHT22;2832;50.864;12.186;2022-12-13T04:02:43;2.50;99.90
5621;DHT22;2832;50.864;12.186;2022-12-13T04:05:16;2.50;99.90
5621;DHT22;2832;50.864;12.186;2022-12-13T04:07:45;2.50;99.90
5621;DHT22;2832;50.864;12.186;2022-12-13T04:10:13;2.50;99.90
5621;DHT22;2832;50.864;12.186;2022-12-13T04:12:41;2.50;99.90
5621;DHT22;2832;50.864;12.186;2022-12-13T04:15:27;2.50;99.90
5621;DHT22;2832;50.864;12.186;2022-12-13T04:17:55;2.50;99.90
5621;DHT22;2832;50.864;12.186;2022-12-13T04:20:25;2.40;99.90
5621;DHT22;2832;50.864;12.186;2022-12-13T04:22:53;2.50;99.90
5621;DHT22;2832;50.864;12.186;2022-12-13T04:25:21;2.40;99.90
5621;DHT22;2832;50.864;12.186;2022-12-13T04:27:49;2.40;99.90
5621;DHT22;2832;50.864;12.186;2022-12-13T04:30:17;2.40;99.90
5621;DHT22;2832;50.864;12.186;2022-12-13T04:32:46;2.40;99.90
5621;DHT22;2832;50.864;12.186;2022-12-13T04:35:15;2.40;99.90
5621;DHT22;2832;50.864;12.186;2022-12-13T04:37:44;2.30;99.90
5621;DHT22;2832;50.864;12.186;2022-12-13T04:40:12;2.30;99.90
5621;DHT22;2832;50.864;12.186;2022-12-13T04:42:41;2.40;99.90
5621;DHT22;2832;50.864;12.186;2022-12-13T04:45:09;2.40;99.90
5621;DHT22;2832;50.864;12.186;2022-12-13T04:47:41;2.40;99.90
5621;DHT22;2832;50.864;12.186;2022-12-13T04:50:09;2.40;99.90
5621;DHT22;2832;50.864;12.186;2022-12-13T04:52:38;2.40;99.90
5621;DHT22;2832;50.864;12.186;2022-12-13T04:55:08;2.30;99.90
5621;DHT22;2832;50.864;12.186;2022-12-13T04:57:36;2.30;99.90
5621;DHT22;2832;50.864;12.186;2022-12-13T05:00:06;2.30;99.90
5621;DHT22;2832;50.864;12.186;2022-12-13T05:02:39;2.30;99.90
5621;DHT22;2832;50.864;12.186;2022-12-13T05:05:09;2.20;99.90
5621;DHT22;2832;50.864;12.186;2022-12-13T05:07:39;2.20;99.90
5621;DHT22;2832;50.864;12.186;2022-12-13T05:10:09;2.20;99.90
5621;DHT22;2832;50.864;12.186;2022-12-13T05:12:38;2.20;99.90
5621;DHT22;2832;50.864;12.186;2022-12-13T05:15:06;2.20;99.90
5621;DHT22;2832;50.864;12.186;2022-12-13T05:17:34;2.30;99.90
5621;DHT22;2832;50.864;12.186;2022-12-13T05:20:03;2.30;99.90
5621;DHT22;2832;50.864;12.186;2022-12-13T05:22:33;2.30;99.90
5621;DHT22;2832;50.864;12.186;2022-12-13T05:25:08;2.20;99.90
5621;DHT22;2832;50.864;12.186;2022-12-13T05:27:41;2.10;99.90
5621;DHT22;2832;50.864;12.186;2022-12-13T05:30:12;2.00;99.90
5621;DHT22;2832;50.864;12.186;2022-12-13T05:32:42;2.00;99.90
5621;DHT22;2832;50.864;12.186;2022-12-13T05:35:12;2.00;99.90
5621;DHT22;2832;50.864;12.186;2022-12-13T05:37:42;2.00;99.90
5621;DHT22;2832;50.864;12.186;2022-12-13T05:40:14;2.00;99.90
5621;DHT22;2832;50.864;12.186;2022-12-13T05:42:44;2.00;99.90
5621;DHT22;2832;50.864;12.186;2022-12-13T05:45:14;1.90;99.90
5621;DHT22;2832;50.864;12.186;2022-12-13T05:47:43;2.00;99.90
5621;DHT22;2832;50.864;12.186;2022-12-13T05:50:13;2.00;99.90
5621;DHT22;2832;50.864;12.186;2022-12-13T05:52:42;2.00;99.90
5621;DHT22;2832;50.864;12.186;2022-12-13T05:55:13;2.00;99.90
5621;DHT22;2832;50.864;12.186;2022-12-13T05:57:43;2.00;99.90
5621;DHT22;2832;50.864;12.186;2022-12-13T06:00:12;2.10;99.90
5621;DHT22;2832;50.864;12.186;2022-12-13T06:02:42;2.10;99.90
5621;DHT22;2832;50.864;12.186;2022-12-13T06:05:12;2.00;99.90
5621;DHT22;2832;50.864;12.186;2022-12-13T06:07:40;2.00;99.90
5621;DHT22;2832;50.864;12.186;2022-12-13T06:10:09;2.00;99.90
5621;DHT22;2832;50.864;12.186;2022-12-13T06:12:40;2.00;99.90
5621;DHT22;2832;50.864;12.186;2022-12-13T06:15:09;2.00;99.90
5621;DHT22;2832;50.864;12.186;2022-12-13T06:17:37;2.00;99.90
5621;DHT22;2832;50.864;12.186;2022-12-13T06:20:07;2.00;99.90
5621;DHT22;2832;50.864;12.186;2022-12-13T06:22:37;2.00;99.90
5621;DHT22;2832;50.864;12.186;2022-12-13T06:25:06;2.00;99.90
5621;DHT22;2832;50.864;12.186;2022-12-13T06:27:36;2.00;99.90
5621;DHT22;2832;50.864;12.186;2022-12-13T06:30:10;1.90;99.90
5621;DHT22;2832;50.864;12.186;2022-12-13T06:32:38;2.00;99.90
5621;DHT22;2832;50.864;12.186;2022-12-13T06:35:09;1.90;99.90
5621;DHT22;2832;50.864;12.186;2022-12-13T06:37:37;1.90;99.90
5621;DHT22;2832;50.864;12.186;2022-12-13T06:40:07;1.90;99.90
5621;DHT22;2832;50.864;12.186;2022-12-13T06:42:36;1.90;99.90
5621;DHT22;2832;50.864;12.186;2022-12-13T06:45:08;1.90;99.90
5621;DHT22;2832;50.864;12.186;2022-12-13T06:47:36;1.90;99.90
5621;DHT22;2832;50.864;12.186;2022-12-13T06:50:07;1.90;99.90
5621;DHT22;2832;50.864;12.186;2022-12-13T06:52:35;1.90;99.90
5621;DHT22;2832;50.864;12.186;2022-12-13T06:55:05;1.90;99.90
5621;DHT22;2832;50.864;12.186;2022-12-13T06:57:33;1.90;99.90
5621;DHT22;2832;50.864;12.186;2022-12-13T07:00:02;1.90;99.90
5621;DHT22;2832;50.864;12.186;2022-12-13T07:02:35;1.90;99.90
5621;DHT22;2832;50.864;12.186;2022-12-13T07:05:05;1.90;99.90
5621;DHT22;2832;50.864;12.186;2022-12-13T07:07:35;1.80;99.90
5621;DHT22;2832;50.864;12.186;2022-12-13T07:10:05;1.70;99.90
5621;DHT22;2832;50.864;12.186;2022-12-13T07:12:34;1.80;99.90
5621;DHT22;2832;50.864;12.186;2022-12-13T07:15:04;1.80;99.90
5621;DHT22;2832;50.864;12.186;2022-12-13T07:17:32;1.80;99.90
5621;DHT22;2832;50.864;12.186;2022-12-13T07:20:07;1.80;99.90
5621;DHT22;2832;50.864;12.186;2022-12-13T07:22:37;1.80;99.90
5621;DHT22;2832;50.864;12.186;2022-12-13T07:25:05;1.80;99.90
5621;DHT22;2832;50.864;12.186;2022-12-13T07:27:33;1.90;99.90
5621;DHT22;2832;50.864;12.186;2022-12-13T07:30:02;1.80;99.90
5621;DHT22;2832;50.864;12.186;2022-12-13T07:32:31;1.80;99.90
5621;DHT22;2832;50.864;12.186;2022-12-13T07:35:00;1.80;99.90
5621;DHT22;2832;50.864;12.186;2022-12-13T07:37:29;1.80;99.90
5621;DHT22;2832;50.864;12.186;2022-12-13T07:39:59;1.70;99.90
5621;DHT22;2832;50.864;12.186;2022-12-13T07:42:27;1.70;99.90
5621;DHT22;2832;50.864;12.186;2022-12-13T07:44:55;1.70;99.90
5621;DHT22;2832;50.864;12.186;2022-12-13T07:47:29;1.70;99.90
5621;DHT22;2832;50.864;12.186;2022-12-13T07:49:58;1.80;99.90
5621;DHT22;2832;50.864;12.186;2022-12-13T07:52:26;1.70;99.90
5621;DHT22;2832;50.864;12.186;2022-12-13T07:54:57;1.70;99.90
5621;DHT22;2832;50.864;12.186;2022-12-13T07:57:25;1.70;99.90
5621;DHT22;2832;50.864;12.186;2022-12-13T07:59:55;1.70;99.90
5621;DHT22;2832;50.864;12.186;2022-12-13T08:02:23;1.70;99.90
5621;DHT22;2832;50.864;12.186;2022-12-13T08:04:52;1.70;99.90
5621;DHT22;2832;50.864;12.186;2022-12-13T08:07:22;1.60;99.90
5621;DHT22;2832;50.864;12.186;2022-12-13T08:09:50;1.60;99.90
5621;DHT22;2832;50.864;12.186;2022-12-13T08:12:22;1.60;99.90
5621;DHT22;2832;50.864;12.186;2022-12-13T08:14:50;1.70;99.90
5621;DHT22;2832;50.864;12.186;2022-12-13T08:17:22;1.70;99.90
5621;DHT22;2832;50.864;12.186;2022-12-13T08:19:52;1.60;99.90
5621;DHT22;2832;50.864;12.186;2022-12-13T08:22:26;1.70;99.90
5621;DHT22;2832;50.864;12.186;2022-12-13T08:24:54;1.60;99.90
5621;DHT22;2832;50.864;12.186;2022-12-13T08:27:25;1.60;99.90
5621;DHT22;2832;50.864;12.186;2022-12-13T08:29:54;1.60;99.90
5621;DHT22;2832;50.864;12.186;2022-12-13T08:32:24;1.60;99.90
5621;DHT22;2832;50.864;12.186;2022-12-13T08:34:52;1.50;99.90
5621;DHT22;2832;50.864;12.186;2022-12-13T08:37:21;1.50;99.90
5621;DHT22;2832;50.864;12.186;2022-12-13T08:39:48;1.50;99.90
5621;DHT22;2832;50.864;12.186;2022-12-13T08:42:17;1.50;99.90
5621;DHT22;2832;50.864;12.186;2022-12-13T08:44:48;1.50;99.90
5621;DHT22;2832;50.864;12.186;2022-12-13T08:47:18;1.50;99.90
5621;DHT22;2832;50.864;12.186;2022-12-13T08:49:46;1.50;99.90
5621;DHT22;2832;50.864;12.186;2022-12-13T08:52:15;1.50;99.90
5621;DHT22;2832;50.864;12.186;2022-12-13T08:54:45;1.50;99.90
5621;DHT22;2832;50.864;12.186;2022-12-13T08:57:14;1.50;99.90
5621;DHT22;2832;50.864;12.186;2022-12-13T08:59:44;1.50;99.90
5621;DHT22;2832;50.864;12.186;2022-12-13T09:02:14;1.50;99.90
5621;DHT22;2832;50.864;12.186;2022-12-13T09:04:42;1.50;99.90
5621;DHT22;2832;50.864;12.186;2022-12-13T09:07:11;1.50;99.90
5621;DHT22;2832;50.864;12.186;2022-12-13T09:09:39;1.50;99.90
5621;DHT22;2832;50.864;12.186;2022-12-13T09:12:07;1.50;99.90
5621;DHT22;2832;50.864;12.186;2022-12-13T09:14:37;1.50;99.90
5621;DHT22;2832;50.864;12.186;2022-12-13T09:17:06;1.50;99.90
5621;DHT22;2832;50.864;12.186;2022-12-13T09:19:37;1.50;99.90
5621;DHT22;2832;50.864;12.186;2022-12-13T09:22:05;1.50;99.90
5621;DHT22;2832;50.864;12.186;2022-12-13T09:24:34;1.50;99.90
5621;DHT22;2832;50.864;12.186;2022-12-13T09:27:05;1.40;99.90
5621;DHT22;2832;50.864;12.186;2022-12-13T09:29:35;1.50;99.90
5621;DHT22;2832;50.864;12.186;2022-12-13T09:32:04;1.50;99.90
5621;DHT22;2832;50.864;12.186;2022-12-13T09:34:33;1.50;99.90
5621;DHT22;2832;50.864;12.186;2022-12-13T09:37:02;1.50;99.90
5621;DHT22;2832;50.864;12.186;2022-12-13T09:39:32;1.40;99.90
5621;DHT22;2832;50.864;12.186;2022-12-13T09:42:00;1.40;99.90
5621;DHT22;2832;50.864;12.186;2022-12-13T09:44:31;1.60;99.90
5621;DHT22;2832;50.864;12.186;2022-12-13T09:47:06;1.60;99.90
5621;DHT22;2832;50.864;12.186;2022-12-13T09:49:40;1.50;99.90
5621;DHT22;2832;50.864;12.186;2022-12-13T09:52:14;1.50;99.90
5621;DHT22;2832;50.864;12.186;2022-12-13T09:54:44;1.50;99.90
5621;DHT22;2832;50.864;12.186;2022-12-13T09:57:17;1.50;99.90
5621;DHT22;2832;50.864;12.186;2022-12-13T09:59:47;1.50;99.90
5621;DHT22;2832;50.864;12.186;2022-12-13T10:02:20;1.60;99.90
5621;DHT22;2832;50.864;12.186;2022-12-13T10:04:51;1.50;99.90
5621;DHT22;2832;50.864;12.186;2022-12-13T10:07:23;1.50;99.90
5621;DHT22;2832;50.864;12.186;2022-12-13T10:09:58;1.50;99.90
5621;DHT22;2832;50.864;12.186;2022-12-13T10:12:28;1.50;99.90
5621;DHT22;2832;50.864;12.186;2022-12-13T10:14:58;1.60;99.90
5621;DHT22;2832;50.864;12.186;2022-12-13T10:17:32;1.50;99.90
5621;DHT22;2832;50.864;12.186;2022-12-13T10:20:02;1.50;99.90
5621;DHT22;2832;50.864;12.186;2022-12-13T10:22:34;1.50;99.90
5621;DHT22;2832;50.864;12.186;2022-12-13T10:25:04;1.50;99.90
5621;DHT22;2832;50.864;12.186;2022-12-13T10:27:37;1.50;99.90
5621;DHT22;2832;50.864;12.186;2022-12-13T10:30:08;1.50;99.90
5621;DHT22;2832;50.864;12.186;2022-12-13T10:33:09;1.50;99.90
5621;DHT22;2832;50.864;12.186;2022-12-13T10:36:13;1.50;99.90
5621;DHT22;2832;50.864;12.186;2022-12-13T10:38:44;1.50;99.90
5621;DHT22;2832;50.864;12.186;2022-12-13T10:41:27;1.60;99.90
5621;DHT22;2832;50.864;12.186;2022-12-13T10:44:19;1.60;99.90
5621;DHT22;2832;50.864;12.186;2022-12-13T10:47:22;1.60;99.90
5621;DHT22;2832;50.864;12.186;2022-12-13T10:49:56;1.60;99.90
5621;DHT22;2832;50.864;12.186;2022-12-13T10:52:29;1.60;99.90
5621;DHT22;2832;50.864;12.186;2022-12-13T10:55:04;1.70;99.90
5621;DHT22;2832;50.864;12.186;2022-12-13T10:57:35;1.70;99.90
5621;DHT22;2832;50.864;12.186;2022-12-13T11:00:32;1.70;99.90
5621;DHT22;2832;50.864;12.186;2022-12-13T11:03:11;1.70;99.90
5621;DHT22;2832;50.864;12.186;2022-12-13T11:05:39;1.70;99.90
5621;DHT22;2832;50.864;12.186;2022-12-13T11:08:22;1.70;99.90
5621;DHT22;2832;50.864;12.186;2022-12-13T11:11:05;1.70;99.90
5621;DHT22;2832;50.864;12.186;2022-12-13T11:13:43;1.80;99.90
5621;DHT22;2832;50.864;12.186;2022-12-13T11:16:20;1.70;99.90
5621;DHT22;2832;50.864;12.186;2022-12-13T11:18:53;1.70;99.90
5621;DHT22;2832;50.864;12.186;2022-12-13T11:21:25;1.70;99.90
5621;DHT22;2832;50.864;12.186;2022-12-13T11:23:57;1.70;99.90
5621;DHT22;2832;50.864;12.186;2022-12-13T11:26:31;1.70;99.90
5621;DHT22;2832;50.864;12.186;2022-12-13T11:29:27;1.70;99.90
5621;DHT22;2832;50.864;12.186;2022-12-13T11:32:04;1.70;99.90
5621;DHT22;2832;50.864;12.186;2022-12-13T11:34:43;1.80;99.90
5621;DHT22;2832;50.864;12.186;2022-12-13T11:37:23;1.80;99.90
5621;DHT22;2832;50.864;12.186;2022-12-13T11:39:56;1.80;99.90
5621;DHT22;2832;50.864;12.186;2022-12-13T11:42:37;1.80;99.90
5621;DHT22;2832;50.864;12.186;2022-12-13T11:45:18;1.80;99.90
5621;DHT22;2832;50.864;12.186;2022-12-13T11:48:01;1.90;99.90
5621;DHT22;2832;50.864;12.186;2022-12-13T11:50:34;1.90;99.90
5621;DHT22;2832;50.864;12.186;2022-12-13T11:53:18;1.90;99.90
5621;DHT22;2832;50.864;12.186;2022-12-13T11:55:53;1.90;99.90
5621;DHT22;2832;50.864;12.186;2022-12-13T11:58:30;1.90;99.90
5621;DHT22;2832;50.864;12.186;2022-12-13T12:01:04;1.90;99.90
5621;DHT22;2832;50.864;12.186;2022-12-13T12:03:40;1.90;99.90
5621;DHT22;2832;50.864;12.186;2022-12-13T12:06:14;1.90;99.90
5621;DHT22;2832;50.864;12.186;2022-12-13T12:08:52;1.80;99.90
5621;DHT22;2832;50.864;12.186;2022-12-13T12:11:28;1.80;99.90
5621;DHT22;2832;50.864;12.186;2022-12-13T12:14:04;1.80;99.90
5621;DHT22;2832;50.864;12.186;2022-12-13T12:16:39;1.80;99.90
5621;DHT22;2832;50.864;12.186;2022-12-13T12:19:15;1.90;99.90
5621;DHT22;2832;50.864;12.186;2022-12-13T12:22:01;1.90;99.90
5621;DHT22;2832;50.864;12.186;2022-12-13T12:24:41;1.90;99.90
5621;DHT22;2832;50.864;12.186;2022-12-13T12:27:25;2.00;99.90
5621;DHT22;2832;50.864;12.186;2022-12-13T12:30:09;2.00;99.90
5621;DHT22;2832;50.864;12.186;2022-12-13T12:32:49;2.10;99.90
5621;DHT22;2832;50.864;12.186;2022-12-13T12:38:44;2.10;99.90
5621;DHT22;2832;50.864;12.186;2022-12-13T12:41:43;2.20;99.90
5621;DHT22;2832;50.864;12.186;2022-12-13T12:44:25;2.10;99.90
5621;DHT22;2832;50.864;12.186;2022-12-13T12:47:17;2.10;99.90
5621;DHT22;2832;50.864;12.186;2022-12-13T12:50:13;2.10;99.90
5621;DHT22;2832;50.864;12.186;2022-12-13T12:52:52;2.10;99.90
5621;DHT22;2832;50.864;12.186;2022-12-13T12:55:29;2.10;99.90
5621;DHT22;2832;50.864;12.186;2022-12-13T12:58:06;2.20;99.90
5621;DHT22;2832;50.864;12.186;2022-12-13T13:00:44;2.20;99.90
5621;DHT22;2832;50.864;12.186;2022-12-13T13:03:20;2.10;99.90
5621;DHT22;2832;50.864;12.186;2022-12-13T13:05:53;2.20;99.90
5621;DHT22;2832;50.864;12.186;2022-12-13T13:08:25;2.30;99.90
5621;DHT22;2832;50.864;12.186;2022-12-13T13:10:57;2.20;99.90
5621;DHT22;2832;50.864;12.186;2022-12-13T13:13:36;2.40;99.90
5621;DHT22;2832;50.864;12.186;2022-12-13T13:16:33;2.40;99.90
5621;DHT22;2832;50.864;12.186;2022-12-13T13:19:04;2.50;99.90
5621;DHT22;2832;50.864;12.186;2022-12-13T13:21:43;2.40;99.90
5621;DHT22;2832;50.864;12.186;2022-12-13T13:24:31;2.40;99.90
5621;DHT22;2832;50.864;12.186;2022-12-13T13:27:27;2.40;99.90
5621;DHT22;2832;50.864;12.186;2022-12-13T13:30:04;2.50;99.90
5621;DHT22;2832;50.864;12.186;2022-12-13T13:32:37;2.40;99.90
5621;DHT22;2832;50.864;12.186;2022-12-13T13:48:14;2.50;99.90
5621;DHT22;2832;50.864;12.186;2022-12-13T13:54:15;2.50;99.90
5621;DHT22;2832;50.864;12.186;2022-12-13T13:57:31;2.60;99.90
5621;DHT22;2832;50.864;12.186;2022-12-13T14:00:10;2.70;99.90
5621;DHT22;2832;50.864;12.186;2022-12-13T14:03:25;2.60;99.90
5621;DHT22;2832;50.864;12.186;2022-12-13T14:09:46;2.70;99.90
5621;DHT22;2832;50.864;12.186;2022-12-13T14:12:46;2.70;99.90
5621;DHT22;2832;50.864;12.186;2022-12-13T14:15:46;2.80;99.90
5621;DHT22;2832;50.864;12.186;2022-12-13T14:18:49;2.80;99.90
5621;DHT22;2832;50.864;12.186;2022-12-13T14:21:36;2.80;99.90
5621;DHT22;2832;50.864;12.186;2022-12-13T14:24:17;2.90;99.90
5621;DHT22;2832;50.864;12.186;2022-12-13T14:27:00;2.90;99.90
5621;DHT22;2832;50.864;12.186;2022-12-13T14:29:36;2.90;99.90
5621;DHT22;2832;50.864;12.186;2022-12-13T14:32:08;2.90;99.90
5621;DHT22;2832;50.864;12.186;2022-12-13T14:34:39;3.00;99.90
5621;DHT22;2832;50.864;12.186;2022-12-13T14:37:20;2.90;99.90
5621;DHT22;2832;50.864;12.186;2022-12-13T14:39:49;2.90;99.90
5621;DHT22;2832;50.864;12.186;2022-12-13T14:42:23;3.00;99.90
5621;DHT22;2832;50.864;12.186;2022-12-13T14:44:54;3.00;99.90
5621;DHT22;2832;50.864;12.186;2022-12-13T14:47:25;3.00;99.90
5621;DHT22;2832;50.864;12.186;2022-12-13T14:49:54;3.00;99.90
5621;DHT22;2832;50.864;12.186;2022-12-13T14:52:31;3.00;99.90
5621;DHT22;2832;50.864;12.186;2022-12-13T14:55:02;3.10;99.90
5621;DHT22;2832;50.864;12.186;2022-12-13T14:57:34;3.10;99.90
5621;DHT22;2832;50.864;12.186;2022-12-13T15:00:22;3.10;99.90
5621;DHT22;2832;50.864;12.186;2022-12-13T15:02:53;3.10;99.90
5621;DHT22;2832;50.864;12.186;2022-12-13T15:05:25;3.10;99.90
5621;DHT22;2832;50.864;12.186;2022-12-13T15:07:54;3.10;99.90
5621;DHT22;2832;50.864;12.186;2022-12-13T15:10:33;3.20;99.90
5621;DHT22;2832;50.864;12.186;2022-12-13T15:13:05;3.30;99.90
5621;DHT22;2832;50.864;12.186;2022-12-13T15:15:36;3.20;99.90
5621;DHT22;2832;50.864;12.186;2022-12-13T15:18:14;3.30;99.90
5621;DHT22;2832;50.864;12.186;2022-12-13T15:20:43;3.30;99.90
5621;DHT22;2832;50.864;12.186;2022-12-13T15:23:17;3.30;99.90
5621;DHT22;2832;50.864;12.186;2022-12-13T15:25:54;3.20;99.90
5621;DHT22;2832;50.864;12.186;2022-12-13T15:28:25;3.20;99.90
5621;DHT22;2832;50.864;12.186;2022-12-13T15:30:57;3.20;99.90
5621;DHT22;2832;50.864;12.186;2022-12-13T15:33:28;3.20;99.90
5621;DHT22;2832;50.864;12.186;2022-12-13T15:36:04;3.30;99.90
5621;DHT22;2832;50.864;12.186;2022-12-13T15:38:34;3.30;99.90
5621;DHT22;2832;50.864;12.186;2022-12-13T15:41:04;3.30;99.90
5621;DHT22;2832;50.864;12.186;2022-12-13T15:43:46;3.30;99.90
5621;DHT22;2832;50.864;12.186;2022-12-13T15:46:24;3.30;99.90
5621;DHT22;2832;50.864;12.186;2022-12-13T15:48:54;3.40;99.90
5621;DHT22;2832;50.864;12.186;2022-12-13T15:51:23;3.40;99.90
5621;DHT22;2832;50.864;12.186;2022-12-13T15:54:03;3.40;99.90
5621;DHT22;2832;50.864;12.186;2022-12-13T15:56:35;3.40;99.90
5621;DHT22;2832;50.864;12.186;2022-12-13T15:59:25;3.40;99.90
5621;DHT22;2832;50.864;12.186;2022-12-13T16:01:55;3.50;99.90
5621;DHT22;2832;50.864;12.186;2022-12-13T16:04:26;3.40;99.90
5621;DHT22;2832;50.864;12.186;2022-12-13T16:06:55;3.40;99.90
5621;DHT22;2832;50.864;12.186;2022-12-13T16:09:25;3.40;99.90
5621;DHT22;2832;50.864;12.186;2022-12-13T16:11:59;3.50;99.90
5621;DHT22;2832;50.864;12.186;2022-12-13T16:14:40;3.50;99.90
5621;DHT22;2832;50.864;12.186;2022-12-13T16:17:22;3.40;99.90
5621;DHT22;2832;50.864;12.186;2022-12-13T16:20:26;3.50;99.90
5621;DHT22;2832;50.864;12.186;2022-12-13T16:23:17;3.60;99.90
5621;DHT22;2832;50.864;12.186;2022-12-13T16:25:44;3.60;99.90
5621;DHT22;2832;50.864;12.186;2022-12-13T16:28:14;3.60;99.90
5621;DHT22;2832;50.864;12.186;2022-12-13T16:31:01;3.50;99.90
5621;DHT22;2832;50.864;12.186;2022-12-13T16:33:32;3.40;99.90
5621;DHT22;2832;50.864;12.186;2022-12-13T16:36:00;3.50;99.90
5621;DHT22;2832;50.864;12.186;2022-12-13T16:38:30;3.50;99.90
5621;DHT22;2832;50.864;12.186;2022-12-13T16:41:00;3.60;99.90
5621;DHT22;2832;50.864;12.186;2022-12-13T16:43:31;3.60;99.90
5621;DHT22;2832;50.864;12.186;2022-12-13T16:46:00;3.70;99.90
5621;DHT22;2832;50.864;12.186;2022-12-13T16:48:36;3.70;99.90
5621;DHT22;2832;50.864;12.186;2022-12-13T16:51:07;3.70;99.90
5621;DHT22;2832;50.864;12.186;2022-12-13T16:53:35;3.70;99.90
5621;DHT22;2832;50.864;12.186;2022-12-13T16:56:03;3.70;99.90
5621;DHT22;2832;50.864;12.186;2022-12-13T16:58:31;3.60;99.90
5621;DHT22;2832;50.864;12.186;2022-12-13T17:01:00;3.70;99.90
5621;DHT22;2832;50.864;12.186;2022-12-13T17:03:28;3.70;99.90
5621;DHT22;2832;50.864;12.186;2022-12-13T17:06:12;3.80;99.90
5621;DHT22;2832;50.864;12.186;2022-12-13T17:08:46;3.70;99.90